This is the latest recevied weather packets stored in our database for station/object G1YBJ-13. If no packets are shown the sender has not sent any weather packets the latest 10 day(s).
| Time | Temp. | Humidity | Pressure | Rain* | Wind** | Luminosity | Snow |
|---|---|---|---|---|---|---|---|
| 1777144786 | 12.78° C | 69% | 1022.4 hPa | - | - | - | - |
| 1777143885 | 13.89° C | 68% | 1022.2 hPa | - | - | - | - |
| 1777142983 | 14.44° C | 67% | 1021.9 hPa | - | - | - | - |
| 1777142080 | 15.56° C | 64% | 1021.8 hPa | - | - | - | - |
| 1777141178 | 17.22° C | 60% | 1021.6 hPa | - | - | - | - |
| 1777140276 | 20° C | 44% | 1021.1 hPa | - | - | - | - |
| 1777139376 | 20.56° C | 43% | 1021 hPa | - | - | - | - |
| 1777138474 | 21.11° C | 43% | 1020.9 hPa | - | - | - | - |
| 1777137572 | 22.78° C | 38% | 1020.8 hPa | - | - | - | - |
| 1777136672 | 26.67° C | 41% | 1020.9 hPa | - | - | - | - |
| 1777135769 | 28.33° C | 37% | 1020.8 hPa | - | - | - | - |
| 1777134867 | 28.89° C | 40% | 1020.9 hPa | - | - | - | - |
| 1777133965 | 29.44° C | 41% | 1020.8 hPa | - | - | - | - |
| 1777133064 | 27.78° C | 39% | 1020.7 hPa | - | - | - | - |
| 1777132161 | 28.89° C | 38% | 1020.8 hPa | - | - | - | - |
| 1777131258 | 29.44° C | 40% | 1020.9 hPa | - | - | - | - |
| 1777130358 | 28.89° C | 37% | 1020.9 hPa | - | - | - | - |
| 1777129457 | 28.33° C | 35% | 1020.9 hPa | - | - | - | - |
| 1777128556 | 28.33° C | 37% | 1020.9 hPa | - | - | - | - |
| 1777127654 | 28.33° C | 37% | 1021 hPa | - | - | - | - |
| 1777126753 | 28.33° C | 37% | 1021.1 hPa | - | - | - | - |
| 1777125851 | 27.78° C | 39% | 1021.2 hPa | - | - | - | - |
| 1777124950 | 27.22° C | 40% | 1021.3 hPa | - | - | - | - |
| 1777124049 | 26.11° C | 39% | 1021.2 hPa | - | - | - | - |
| 1777123148 | 26.67° C | 34% | 1021.3 hPa | - | - | - | - |
* Rain since midnight (hover to see other rain measurements)
** Current wind speed in m/s (hover to see current wind gust speed)